Time;durP1;ratioP1;P1;durP2;ratioP2;P2;SDS_P1;SDS_P2;PMS_P1;PMS_P2;Temp;Humidity;BMP_temperature;BMP_pressure;BME280_temperature;BME280_humidity;BME280_pressure;Samples;Min_cycle;Max_cycle;Signal;HPM_P1;HPM_P2
2023/06/27 00:00:37;;;;;;;9.93;5.43;;;15.30;79.00;;;;;;4972865;28;20043;-76
2023/06/27 00:03:03;;;;;;;8.48;5.05;;;15.30;78.90;;;;;;4956603;28;20055;-76
2023/06/27 00:05:30;;;;;;;9.40;5.35;;;15.30;78.90;;;;;;4972810;28;20050;-76
2023/06/27 00:07:56;;;;;;;5.93;4.18;;;15.30;79.00;;;;;;4956927;28;20047;-76
2023/06/27 00:10:21;;;;;;;7.68;5.25;;;15.30;79.10;;;;;;4956966;28;20039;-76
2023/06/27 00:12:47;;;;;;;7.57;5.10;;;15.30;79.00;;;;;;4957073;28;20043;-76
2023/06/27 00:15:13;;;;;;;6.40;4.57;;;15.30;78.80;;;;;;4957313;28;20071;-76
2023/06/27 00:17:40;;;;;;;9.93;4.97;;;15.30;78.80;;;;;;4973186;28;20591;-76
2023/06/27 00:20:09;;;;;;;8.77;4.78;;;15.30;78.80;;;;;;4973105;28;20065;-76
2023/06/27 00:22:39;;;;;;;6.88;5.00;;;15.30;78.90;;;;;;4973205;28;20467;-76
2023/06/27 00:25:06;;;;;;;7.30;4.60;;;15.30;78.90;;;;;;4957557;28;20046;-76
2023/06/27 00:27:32;;;;;;;8.93;4.95;;;15.40;78.90;;;;;;4973133;28;20121;-76
2023/06/27 00:29:58;;;;;;;10.35;5.05;;;15.40;79.10;;;;;;4973167;28;20046;-76
2023/06/27 00:32:23;;;;;;;7.40;5.03;;;15.30;78.90;;;;;;4973156;28;20042;-76
2023/06/27 00:34:49;;;;;;;6.47;4.85;;;15.30;79.10;;;;;;4957129;28;20510;-76
2023/06/27 00:37:15;;;;;;;7.50;3.92;;;15.20;79.00;;;;;;4973235;28;20051;-76
2023/06/27 00:39:41;;;;;;;7.38;4.72;;;15.30;79.10;;;;;;4973154;28;20507;-76
2023/06/27 00:42:07;;;;;;;6.43;4.50;;;15.20;78.90;;;;;;4972678;28;20537;-76
2023/06/27 00:44:32;;;;;;;6.95;4.20;;;15.20;78.80;;;;;;4972791;28;20068;-76
2023/06/27 00:46:58;;;;;;;7.97;4.38;;;15.20;78.70;;;;;;4972916;28;20039;-76
2023/06/27 00:49:25;;;;;;;7.25;4.80;;;15.20;78.70;;;;;;4957625;28;20519;-76
2023/06/27 00:51:53;;;;;;;6.85;4.18;;;15.20;78.50;;;;;;4944662;28;20125;-76
2023/06/27 00:54:19;;;;;;;7.78;4.45;;;15.10;78.70;;;;;;4976658;28;20054;-75
2023/06/27 00:56:48;;;;;;;7.22;4.90;;;15.00;78.60;;;;;;4961679;28;20044;-75
2023/06/27 00:59:13;;;;;;;7.22;4.57;;;15.00;78.50;;;;;;4961777;28;20144;-76
2023/06/27 01:01:39;;;;;;;8.32;4.72;;;15.00;78.70;;;;;;4960903;28;20086;-75
2023/06/27 01:04:05;;;;;;;6.60;4.15;;;15.00;78.40;;;;;;4977260;28;20055;-76
2023/06/27 01:06:54;;;;;;;7.75;4.18;;;15.00;78.40;;;;;;4977119;28;20050;-75
2023/06/27 01:09:28;;;;;;;6.45;4.47;;;15.00;78.10;;;;;;4969953;28;20076;-76
2023/06/27 01:12:22;;;;;;;8.50;3.78;;;15.00;78.00;;;;;;4960851;28;20050;-75
2023/06/27 01:14:52;;;;;;;6.28;3.90;;;15.00;77.70;;;;;;4971677;28;20526;-75
2023/06/27 01:17:19;;;;;;;6.65;3.35;;;15.00;77.80;;;;;;4960848;28;20097;-76
2023/06/27 01:19:45;;;;;;;8.70;4.43;;;15.00;77.60;;;;;;4961035;28;20381;-76
2023/06/27 01:22:18;;;;;;;7.68;3.97;;;14.90;77.70;;;;;;4960755;28;20034;-76
2023/06/27 01:24:44;;;;;;;5.30;3.15;;;14.90;77.70;;;;;;4977157;28;20047;-76
2023/06/27 01:27:12;;;;;;;7.10;3.40;;;15.00;77.40;;;;;;4960987;28;20046;-76
2023/06/27 01:29:41;;;;;;;6.40;3.25;;;15.00;77.50;;;;;;4961400;28;20415;-76
2023/06/27 01:32:25;;;;;;;5.47;3.55;;;14.90;77.40;;;;;;4962509;28;20043;-75
2023/06/27 01:35:08;;;;;;;5.55;2.88;;;15.00;77.40;;;;;;4960663;28;20066;-75
2023/06/27 01:37:41;;;;;;;8.82;3.10;;;15.00;77.20;;;;;;4976335;28;20043;-75
2023/06/27 01:40:11;;;;;;;5.10;3.50;;;15.00;77.10;;;;;;4960236;28;20055;-75
2023/06/27 01:42:42;;;;;;;6.82;3.72;;;15.00;77.20;;;;;;4976539;28;20047;-75
2023/06/27 01:45:10;;;;;;;12.35;3.15;;;15.00;77.10;;;;;;4960027;28;20046;-75
2023/06/27 01:47:40;;;;;;;5.07;2.95;;;15.00;77.00;;;;;;4975920;28;20054;-75
2023/06/27 01:50:07;;;;;;;4.03;3.28;;;15.00;76.90;;;;;;4976005;28;20495;-75
2023/06/27 01:52:32;;;;;;;7.57;2.95;;;15.00;76.90;;;;;;4975930;28;20047;-76
2023/06/27 01:54:59;;;;;;;6.13;4.50;;;15.00;77.00;;;;;;4975916;28;20488;-76
2023/06/27 01:57:25;;;;;;;7.75;3.60;;;15.00;77.10;;;;;;4976049;28;20046;-76
2023/06/27 01:59:52;;;;;;;5.50;3.20;;;15.00;77.10;;;;;;4975648;28;20498;-75
2023/06/27 02:02:18;;;;;;;9.73;3.45;;;15.00;77.10;;;;;;4974820;28;20411;-75
2023/06/27 02:04:44;;;;;;;5.32;2.95;;;15.00;77.20;;;;;;4959500;28;20058;-75
2023/06/27 02:07:10;;;;;;;6.10;3.55;;;15.00;77.20;;;;;;4959744;28;20051;-75
2023/06/27 02:09:36;;;;;;;10.05;3.40;;;15.00;77.30;;;;;;4959725;28;20395;-75
2023/06/27 02:12:04;;;;;;;7.55;2.92;;;15.00;77.30;;;;;;4975499;28;20045;-75
2023/06/27 02:14:30;;;;;;;8.85;3.63;;;15.00;77.30;;;;;;4944075;28;20105;-75
2023/06/27 02:16:56;;;;;;;6.90;3.10;;;15.10;77.30;;;;;;4959411;28;20081;-75
2023/06/27 02:19:21;;;;;;;5.60;3.25;;;15.10;77.30;;;;;;4975657;28;20034;-75
2023/06/27 02:21:50;;;;;;;9.65;3.78;;;15.10;77.30;;;;;;4959489;28;20516;-75
2023/06/27 02:24:16;;;;;;;6.50;3.47;;;15.00;77.40;;;;;;4959432;28;20090;-76
2023/06/27 02:26:43;;;;;;;8.90;3.53;;;15.10;77.40;;;;;;4991509;28;20381;-76
2023/06/27 02:29:08;;;;;;;8.32;3.38;;;15.10;77.40;;;;;;4975426;28;20392;-76
2023/06/27 02:31:34;;;;;;;10.30;3.33;;;15.00;77.70;;;;;;4975557;28;20041;-76
2023/06/27 02:34:01;;;;;;;5.07;3.08;;;15.00;77.90;;;;;;4975062;28;20479;-76
2023/06/27 02:36:27;;;;;;;5.30;3.00;;;15.00;77.70;;;;;;4959284;28;20102;-76
2023/06/27 02:38:57;;;;;;;5.30;2.95;;;15.00;77.90;;;;;;4959122;28;20054;-76
2023/06/27 02:41:24;;;;;;;8.02;3.22;;;15.00;78.00;;;;;;4974947;28;20047;-76
2023/06/27 02:43:50;;;;;;;9.65;3.65;;;15.00;78.00;;;;;;4974935;28;20043;-76
2023/06/27 02:46:16;;;;;;;5.47;3.25;;;15.00;78.00;;;;;;4958779;28;20122;-76
2023/06/27 02:48:42;;;;;;;5.18;3.58;;;15.00;78.10;;;;;;4974955;28;20042;-75
2023/06/27 02:51:08;;;;;;;5.25;3.28;;;15.00;78.00;;;;;;4958796;28;20049;-76
2023/06/27 02:53:34;;;;;;;7.78;3.17;;;15.00;78.10;;;;;;4958553;28;20030;-76
2023/06/27 02:56:02;;;;;;;8.32;3.50;;;15.00;78.40;;;;;;4958555;28;20046;-76
2023/06/27 02:58:32;;;;;;;4.45;3.20;;;15.00;78.40;;;;;;4975005;28;20423;-76
2023/06/27 03:01:06;;;;;;;6.72;3.30;;;15.00;78.60;;;;;;4974672;28;20510;-76
2023/06/27 03:03:35;;;;;;;4.53;3.03;;;15.00;78.50;;;;;;4957536;28;20105;-76
2023/06/27 03:06:08;;;;;;;7.55;2.83;;;14.90;78.60;;;;;;4942311;28;20097;-76
2023/06/27 03:08:40;;;;;;;8.48;3.65;;;14.90;78.90;;;;;;4943022;28;20099;-76
2023/06/27 03:11:06;;;;;;;6.18;3.45;;;14.90;78.80;;;;;;4973725;28;20050;-76
2023/06/27 03:13:32;;;;;;;9.70;4.07;;;14.90;79.10;;;;;;4973601;28;20043;-75
2023/06/27 03:15:57;;;;;;;9.73;4.25;;;14.80;79.80;;;;;;4974411;28;20129;-76
2023/06/27 03:18:23;;;;;;;11.45;3.90;;;14.80;79.40;;;;;;4942122;28;20563;-75
2023/06/27 03:20:49;;;;;;;6.85;3.70;;;14.70;79.90;;;;;;4974126;28;20094;-75
2023/06/27 03:23:14;;;;;;;9.40;4.32;;;14.70;80.00;;;;;;4974187;28;20046;-75
2023/06/27 03:25:40;;;;;;;6.05;3.85;;;14.70;80.00;;;;;;4957944;28;20226;-75
2023/06/27 03:28:06;;;;;;;7.30;3.95;;;14.60;80.60;;;;;;4957892;28;20043;-76
2023/06/27 03:30:32;;;;;;;8.02;4.68;;;14.60;80.60;;;;;;4974302;28;20046;-76
2023/06/27 03:32:57;;;;;;;10.70;4.78;;;14.50;80.80;;;;;;4957791;28;20043;-76
2023/06/27 03:35:23;;;;;;;9.50;4.32;;;14.50;80.90;;;;;;4942128;28;20104;-75
2023/06/27 03:37:50;;;;;;;8.20;4.60;;;14.50;80.90;;;;;;4973881;28;20046;-75
2023/06/27 03:40:17;;;;;;;9.65;4.70;;;14.40;81.80;;;;;;4973830;28;20054;-75
2023/06/27 03:42:42;;;;;;;8.90;4.80;;;14.40;81.60;;;;;;4957960;28;20051;-76
2023/06/27 03:45:09;;;;;;;7.28;4.70;;;14.50;81.20;;;;;;4957657;28;20046;-75
2023/06/27 03:47:34;;;;;;;8.52;4.30;;;14.50;81.70;;;;;;4957486;28;20042;-75
2023/06/27 03:50:00;;;;;;;11.48;5.10;;;14.50;81.40;;;;;;4973763;28;20042;-75
2023/06/27 03:52:25;;;;;;;5.97;4.35;;;14.50;82.20;;;;;;4973719;28;20047;-75
2023/06/27 03:54:51;;;;;;;10.98;5.18;;;14.50;82.30;;;;;;4958147;28;20059;-77
2023/06/27 03:57:17;;;;;;;10.43;4.93;;;14.50;82.40;;;;;;4942173;28;20194;-77
2023/06/27 03:59:42;;;;;;;11.48;4.13;;;14.50;82.40;;;;;;4973741;28;20487;-77
2023/06/27 04:02:08;;;;;;;10.85;5.60;;;14.50;82.40;;;;;;4957756;28;20050;-77
2023/06/27 04:04:34;;;;;;;9.60;4.53;;;14.50;82.20;;;;;;4958057;28;20499;-76
2023/06/27 04:06:59;;;;;;;7.78;4.32;;;14.50;82.10;;;;;;4957462;28;20078;-77
2023/06/27 04:09:25;;;;;;;9.70;4.43;;;14.50;81.90;;;;;;4973775;28;20039;-76
2023/06/27 04:11:51;;;;;;;10.98;3.60;;;14.60;82.00;;;;;;4973678;28;20046;-76
2023/06/27 04:14:17;;;;;;;7.35;3.40;;;14.60;81.90;;;;;;4957649;28;20053;-76
2023/06/27 04:16:46;;;;;;;9.27;3.58;;;14.70;81.60;;;;;;4973931;28;20388;-77
2023/06/27 04:19:12;;;;;;;8.35;3.33;;;14.80;81.60;;;;;;4957778;28;20047;-76
2023/06/27 04:21:37;;;;;;;7.70;3.45;;;14.90;81.20;;;;;;4957592;28;20423;-77
2023/06/27 04:24:03;;;;;;;8.63;3.40;;;15.00;81.10;;;;;;4956643;28;20047;-77
2023/06/27 04:26:30;;;;;;;8.13;4.03;;;15.00;80.70;;;;;;4957354;28;20133;-77
2023/06/27 04:28:56;;;;;;;8.73;2.85;;;15.00;80.60;;;;;;4957450;28;20400;-79
2023/06/27 04:31:22;;;;;;;11.05;3.70;;;15.20;80.50;;;;;;4973050;28;20054;-80
2023/06/27 04:33:48;;;;;;;7.63;3.13;;;15.20;80.50;;;;;;4973416;28;20054;-79
2023/06/27 04:36:20;;;;;;;7.93;2.90;;;15.30;80.40;;;;;;4941067;28;20038;-78
2023/06/27 04:38:48;;;;;;;7.18;3.03;;;15.30;80.20;;;;;;4973614;28;20403;-78
2023/06/27 04:41:13;;;;;;;8.02;2.80;;;15.40;80.20;;;;;;4973459;28;20043;-78
2023/06/27 04:43:39;;;;;;;5.95;2.97;;;15.40;80.20;;;;;;4973356;28;20414;-78
2023/06/27 04:46:05;;;;;;;7.15;2.95;;;15.50;80.00;;;;;;4944076;28;20049;-79
2023/06/27 04:48:31;;;;;;;7.70;2.72;;;15.60;79.90;;;;;;4983395;28;20126;-78
2023/06/27 04:50:57;;;;;;;6.60;3.00;;;15.70;80.10;;;;;;4982666;28;20081;-79
2023/06/27 04:53:23;;;;;;;9.73;3.67;;;15.70;80.40;;;;;;5006982;28;20062;-79
2023/06/27 04:55:50;;;;;;;5.20;2.78;;;15.80;80.00;;;;;;5008137;28;20050;-79
2023/06/27 04:58:17;;;;;;;4.47;2.63;;;15.90;80.20;;;;;;4966177;28;20090;-79
2023/06/27 05:00:44;;;;;;;6.07;2.88;;;15.90;80.40;;;;;;4983249;28;20121;-79
2023/06/27 05:03:10;;;;;;;8.02;2.65;;;16.00;80.30;;;;;;5006004;28;20415;-79
2023/06/27 05:05:36;;;;;;;5.97;2.53;;;16.00;80.00;;;;;;4989622;28;20483;-80
2023/06/27 05:08:03;;;;;;;4.68;2.40;;;16.20;79.90;;;;;;5006804;28;20089;-78
2023/06/27 05:10:33;;;;;;;3.88;2.50;;;16.20;79.80;;;;;;4990137;28;20179;-80
2023/06/27 05:12:59;;;;;;;7.90;2.50;;;16.30;79.70;;;;;;4990216;28;20565;-79
2023/06/27 05:15:26;;;;;;;7.43;2.72;;;16.40;79.50;;;;;;5006979;28;20047;-79
2023/06/27 05:17:53;;;;;;;6.82;2.45;;;16.40;79.90;;;;;;5006136;28;20125;-79
2023/06/27 05:20:20;;;;;;;7.68;2.78;;;16.50;79.70;;;;;;5006345;28;20035;-80
2023/06/27 05:22:45;;;;;;;6.43;2.00;;;16.60;79.80;;;;;;4990306;28;20399;-80
2023/06/27 05:25:12;;;;;;;9.77;2.00;;;16.70;79.80;;;;;;4990257;28;20045;-80
2023/06/27 05:27:38;;;;;;;5.13;1.48;;;16.80;79.30;;;;;;4989858;28;20074;-80
2023/06/27 05:30:04;;;;;;;4.53;1.80;;;16.90;79.00;;;;;;5005579;28;20148;-79
2023/06/27 05:32:30;;;;;;;4.22;1.40;;;17.00;78.70;;;;;;4988774;28;20097;-79
2023/06/27 05:34:55;;;;;;;5.85;1.83;;;17.10;78.10;;;;;;5005180;28;20042;-80
2023/06/27 05:37:21;;;;;;;6.45;2.22;;;17.20;77.50;;;;;;4975086;28;20035;-78
2023/06/27 05:39:47;;;;;;;10.73;2.08;;;17.30;77.20;;;;;;4992541;28;20078;-79
2023/06/27 05:42:13;;;;;;;5.53;1.88;;;17.40;76.90;;;;;;4992558;28;20054;-78
2023/06/27 05:44:38;;;;;;;5.63;1.38;;;17.50;76.50;;;;;;5008471;28;20042;-79
2023/06/27 05:47:05;;;;;;;5.07;1.85;;;17.70;75.60;;;;;;5008742;28;20048;-80
2023/06/27 05:49:30;;;;;;;6.22;1.90;;;17.70;75.10;;;;;;5008723;28;20043;-80
2023/06/27 05:51:57;;;;;;;6.32;1.70;;;17.90;74.70;;;;;;5008475;28;20046;-78
2023/06/27 05:54:23;;;;;;;6.18;1.38;;;17.90;73.90;;;;;;5008566;28;20043;-81
2023/06/27 05:56:49;;;;;;;8.27;2.33;;;18.00;73.60;;;;;;5008646;28;20121;-80
2023/06/27 05:59:14;;;;;;;5.75;1.80;;;18.10;72.30;;;;;;4976202;28;20471;-80
2023/06/27 06:01:40;;;;;;;4.82;1.58;;;18.10;72.30;;;;;;4992632;28;20043;-81
2023/06/27 06:04:06;;;;;;;5.80;1.30;;;18.30;71.50;;;;;;5008822;28;20046;-79
2023/06/27 06:06:38;;;;;;;5.22;1.20;;;18.40;70.40;;;;;;4992610;28;20046;-79
2023/06/27 06:09:05;;;;;;;3.85;1.17;;;18.40;70.70;;;;;;5008764;28;20053;-79
2023/06/27 06:11:34;;;;;;;4.60;1.55;;;18.50;70.10;;;;;;5008837;28;20050;-78
2023/06/27 06:14:03;;;;;;;3.92;1.20;;;18.60;68.90;;;;;;4992699;28;20141;-78
2023/06/27 06:16:33;;;;;;;4.63;1.35;;;18.70;69.10;;;;;;4992098;28;20035;-79
2023/06/27 06:18:59;;;;;;;7.43;1.60;;;18.90;69.10;;;;;;4975972;28;20038;-79
2023/06/27 06:21:26;;;;;;;5.03;1.35;;;19.00;68.40;;;;;;4975653;28;20043;-79
2023/06/27 06:23:51;;;;;;;5.53;1.25;;;19.10;65.80;;;;;;4975454;28;20093;-78
2023/06/27 06:26:17;;;;;;;3.95;1.40;;;19.20;65.10;;;;;;4992052;28;20042;-78
2023/06/27 06:28:43;;;;;;;4.60;1.15;;;19.30;65.40;;;;;;5008117;28;20041;-78
2023/06/27 06:31:10;;;;;;;6.70;1.67;;;19.40;65.50;;;;;;4991849;28;20039;-78
2023/06/27 06:33:38;;;;;;;6.50;1.30;;;19.50;65.70;;;;;;4991642;28;20030;-78
2023/06/27 06:36:05;;;;;;;4.80;1.45;;;19.70;65.00;;;;;;4991904;28;20043;-78
2023/06/27 06:38:30;;;;;;;7.00;1.90;;;19.70;63.00;;;;;;4991823;28;20440;-78
2023/06/27 06:40:56;;;;;;;5.38;1.73;;;19.70;62.50;;;;;;4943750;28;20070;-78
2023/06/27 06:43:25;;;;;;;4.57;1.40;;;19.80;62.20;;;;;;4991955;28;20039;-79
2023/06/27 06:45:54;;;;;;;6.82;2.17;;;19.80;62.30;;;;;;5007954;28;20202;-78
2023/06/27 06:48:20;;;;;;;6.05;1.40;;;19.90;63.00;;;;;;4990793;28;20530;-79
2023/06/27 06:50:47;;;;;;;3.00;1.00;;;19.90;62.50;;;;;;4991214;28;20039;-78
2023/06/27 06:53:13;;;;;;;4.38;1.58;;;19.90;62.40;;;;;;5007806;28;20094;-79
2023/06/27 06:55:39;;;;;;;6.05;1.40;;;20.00;63.00;;;;;;5007922;28;20090;-79
2023/06/27 06:58:04;;;;;;;6.50;1.52;;;20.00;62.80;;;;;;4991823;28;20443;-79
2023/06/27 07:00:30;;;;;;;5.00;2.42;;;20.00;63.00;;;;;;4991083;28;20057;-79
2023/06/27 07:02:56;;;;;;;6.25;1.60;;;20.10;63.00;;;;;;4958789;28;20062;-79
2023/06/27 07:05:22;;;;;;;6.28;1.20;;;20.10;63.70;;;;;;5007490;28;20519;-79
2023/06/27 07:07:48;;;;;;;4.80;1.20;;;20.20;63.60;;;;;;4991379;28;20053;-78
2023/06/27 07:10:13;;;;;;;4.55;1.30;;;20.20;63.00;;;;;;4991284;28;20122;-78
2023/06/27 07:12:40;;;;;;;4.50;1.05;;;20.20;63.70;;;;;;4942953;28;20558;-79
2023/06/27 07:15:06;;;;;;;3.95;1.67;;;20.20;63.90;;;;;;4974791;28;20039;-78
2023/06/27 07:17:32;;;;;;;4.60;1.63;;;20.20;63.60;;;;;;5007137;28;20042;-78
2023/06/27 07:19:58;;;;;;;5.63;1.77;;;20.20;63.10;;;;;;4991122;28;20046;-78
2023/06/27 07:22:25;;;;;;;4.75;1.15;;;20.20;63.30;;;;;;5007237;28;20078;-78
2023/06/27 07:24:50;;;;;;;4.40;1.23;;;20.00;64.10;;;;;;5007463;28;20035;-78
2023/06/27 07:27:16;;;;;;;3.40;1.40;;;20.00;64.10;;;;;;4991198;28;20376;-78
2023/06/27 07:29:42;;;;;;;8.60;1.75;;;20.00;64.70;;;;;;4974664;28;20466;-78
2023/06/27 07:32:10;;;;;;;5.00;2.05;;;20.10;64.90;;;;;;4990979;28;20103;-78
2023/06/27 07:34:36;;;;;;;7.97;1.60;;;20.00;65.10;;;;;;5007610;28;20400;-79
2023/06/27 07:37:02;;;;;;;8.63;2.15;;;20.00;65.60;;;;;;4991125;28;20039;-78
2023/06/27 07:39:28;;;;;;;8.65;2.70;;;20.10;66.00;;;;;;4991263;28;20491;-79
2023/06/27 07:41:54;;;;;;;5.25;1.70;;;20.20;66.10;;;;;;4958984;28;20054;-78
2023/06/27 07:44:20;;;;;;;9.85;1.73;;;20.30;65.90;;;;;;5007523;28;20084;-79
2023/06/27 07:46:46;;;;;;;5.40;1.67;;;20.30;65.80;;;;;;4975254;28;20050;-79
2023/06/27 07:49:11;;;;;;;7.18;1.38;;;20.40;65.90;;;;;;5007582;28;20049;-79
2023/06/27 07:51:37;;;;;;;4.68;1.25;;;20.40;65.50;;;;;;4990660;28;20090;-79
2023/06/27 07:54:03;;;;;;;5.90;1.30;;;20.30;64.90;;;;;;4991287;28;20042;-78
2023/06/27 07:56:29;;;;;;;6.93;1.55;;;20.40;64.80;;;;;;5007277;28;20521;-78
2023/06/27 07:58:55;;;;;;;6.63;2.00;;;20.40;64.30;;;;;;4974168;28;20034;-79
2023/06/27 08:01:21;;;;;;;6.70;1.60;;;20.40;65.30;;;;;;4991035;28;20453;-78
2023/06/27 08:03:47;;;;;;;10.60;1.90;;;20.40;65.40;;;;;;5006949;28;20059;-79
2023/06/27 08:06:12;;;;;;;6.30;1.52;;;20.40;63.90;;;;;;4990748;28;20058;-78
2023/06/27 08:08:38;;;;;;;4.78;1.35;;;20.40;63.30;;;;;;5007407;28;20043;-79
2023/06/27 08:11:04;;;;;;;9.00;2.55;;;20.40;64.40;;;;;;4990786;28;20039;-79
2023/06/27 08:13:30;;;;;;;6.20;1.80;;;20.50;64.90;;;;;;5007085;28;20049;-78
2023/06/27 08:15:56;;;;;;;6.22;1.48;;;20.60;63.50;;;;;;4958511;28;20052;-78
2023/06/27 08:18:21;;;;;;;6.82;1.85;;;20.70;62.70;;;;;;4990746;28;20043;-78
2023/06/27 08:20:47;;;;;;;3.78;1.33;;;20.90;62.30;;;;;;4990488;28;20043;-78
2023/06/27 08:23:13;;;;;;;2.95;1.13;;;20.90;62.30;;;;;;4990332;28;20039;-79
2023/06/27 08:25:38;;;;;;;6.78;1.35;;;21.00;62.00;;;;;;5006727;28;20545;-78
2023/06/27 08:28:04;;;;;;;3.38;1.02;;;21.00;62.40;;;;;;5006361;28;20384;-79
2023/06/27 08:30:31;;;;;;;4.90;1.58;;;20.90;59.20;;;;;;5006806;28;20052;-78
2023/06/27 08:32:56;;;;;;;4.25;1.40;;;20.90;59.20;;;;;;4989920;28;20042;-78
2023/06/27 08:35:23;;;;;;;7.28;1.45;;;20.90;58.30;;;;;;5006255;28;20098;-78
2023/06/27 08:37:48;;;;;;;5.55;1.33;;;20.90;59.30;;;;;;5006084;28;20479;-78
2023/06/27 08:40:24;;;;;;;5.85;1.33;;;20.90;60.20;;;;;;5005755;28;20045;-78
2023/06/27 08:42:50;;;;;;;5.40;1.23;;;20.90;60.10;;;;;;4990393;28;20050;-78
2023/06/27 08:45:16;;;;;;;4.47;1.20;;;20.90;59.60;;;;;;5006389;28;20050;-80
2023/06/27 08:47:46;;;;;;;2.65;1.00;;;20.90;60.30;;;;;;5006318;28;20035;-80
2023/06/27 08:50:17;;;;;;;7.93;1.90;;;20.90;60.50;;;;;;5006436;28;20631;-80
2023/06/27 08:52:45;;;;;;;7.25;1.73;;;20.90;60.20;;;;;;5005808;28;20558;-80
2023/06/27 08:55:20;;;;;;;3.60;1.45;;;20.80;60.40;;;;;;4990113;28;20046;-79
2023/06/27 08:57:46;;;;;;;7.07;1.27;;;20.90;60.50;;;;;;4989667;28;20034;-79
2023/06/27 09:00:19;;;;;;;4.50;1.48;;;20.90;59.80;;;;;;4989776;28;20488;-79
2023/06/27 09:02:46;;;;;;;5.95;1.67;;;20.90;59.80;;;;;;5005867;28;20443;-78
2023/06/27 09:05:12;;;;;;;8.50;1.63;;;20.80;60.20;;;;;;4973544;28;20050;-79
2023/06/27 09:07:38;;;;;;;4.20;1.30;;;20.70;61.30;;;;;;4989439;28;20058;-78
2023/06/27 09:10:04;;;;;;;6.15;1.60;;;20.80;62.60;;;;;;4990208;28;20122;-79
2023/06/27 09:12:32;;;;;;;5.70;1.42;;;20.80;62.40;;;;;;4993489;28;20050;-80
2023/06/27 09:14:59;;;;;;;4.65;1.50;;;20.80;62.60;;;;;;5009781;28;20499;-80
2023/06/27 09:17:25;;;;;;;4.53;1.50;;;20.90;62.40;;;;;;4993505;28;20446;-81
2023/06/27 09:19:51;;;;;;;4.63;1.50;;;20.90;60.90;;;;;;4961131;28;20522;-80
2023/06/27 09:22:19;;;;;;;5.28;1.75;;;20.90;60.60;;;;;;5009451;28;20039;-80
2023/06/27 09:24:46;;;;;;;3.47;1.35;;;21.00;59.60;;;;;;4976771;28;20075;-80
2023/06/27 09:27:31;;;;;;;8.50;2.47;;;21.00;59.70;;;;;;5009017;28;20039;-80
2023/06/27 09:30:02;;;;;;;5.75;1.90;;;21.10;60.30;;;;;;5008739;28;20041;-80
2023/06/27 09:32:28;;;;;;;7.18;1.65;;;21.20;59.50;;;;;;4976469;28;20472;-80
2023/06/27 09:34:54;;;;;;;6.53;1.45;;;21.20;59.00;;;;;;5008818;28;20049;-80
2023/06/27 09:37:20;;;;;;;5.07;1.38;;;21.20;58.50;;;;;;4992760;28;20053;-79
2023/06/27 09:39:46;;;;;;;6.03;1.48;;;21.20;59.00;;;;;;5008983;28;20043;-81
2023/06/27 09:42:12;;;;;;;7.47;2.03;;;21.20;58.30;;;;;;4976522;28;20046;-80
2023/06/27 09:44:37;;;;;;;3.10;1.10;;;21.20;58.40;;;;;;4976180;28;20421;-79
2023/06/27 09:47:10;;;;;;;5.30;1.40;;;21.20;58.30;;;;;;4992470;28;20127;-79
2023/06/27 09:49:38;;;;;;;7.07;1.70;;;21.40;58.40;;;;;;4992421;28;20047;-80
2023/06/27 09:52:05;;;;;;;3.03;1.38;;;21.50;57.70;;;;;;5008220;28;20043;-80
2023/06/27 09:54:30;;;;;;;3.70;0.95;;;21.50;56.20;;;;;;4975693;28;20050;-80
2023/06/27 09:56:56;;;;;;;5.15;1.35;;;21.60;56.90;;;;;;4991906;28;20043;-79
2023/06/27 09:59:28;;;;;;;6.07;1.70;;;21.60;57.20;;;;;;4975724;28;20045;-80
2023/06/27 10:01:54;;;;;;;4.38;1.30;;;21.70;56.90;;;;;;4991859;28;20039;-81
2023/06/27 10:04:20;;;;;;;5.25;1.65;;;21.80;56.60;;;;;;4975553;28;20421;-80
2023/06/27 10:06:46;;;;;;;4.22;1.20;;;21.90;55.50;;;;;;5008106;28;20053;-80
2023/06/27 10:09:12;;;;;;;5.20;1.52;;;21.90;55.60;;;;;;4991691;28;20043;-81
2023/06/27 10:11:39;;;;;;;4.95;1.27;;;21.90;55.90;;;;;;5008006;28;20105;-79
2023/06/27 10:14:05;;;;;;;6.40;1.38;;;21.90;56.50;;;;;;4975504;28;20047;-80
2023/06/27 10:16:32;;;;;;;5.22;1.20;;;21.90;56.40;;;;;;4991681;28;20127;-79
2023/06/27 10:18:58;;;;;;;3.42;1.23;;;21.90;56.10;;;;;;4975590;28;20042;-79
2023/06/27 10:21:26;;;;;;;5.70;1.30;;;21.90;56.10;;;;;;4991194;28;20053;-79
2023/06/27 10:23:55;;;;;;;5.35;1.58;;;21.90;56.90;;;;;;5007388;28;20054;-78
2023/06/27 10:26:21;;;;;;;5.00;1.60;;;21.80;56.30;;;;;;4991480;28;20085;-79
2023/06/27 10:28:50;;;;;;;6.53;1.85;;;21.80;56.20;;;;;;4975388;28;20074;-78
2023/06/27 10:31:45;;;;;;;2.83;1.30;;;21.90;56.20;;;;;;4991334;28;20129;-79
2023/06/27 10:34:18;;;;;;;5.50;1.35;;;22.00;54.00;;;;;;5007888;28;20511;-79
2023/06/27 10:37:26;;;;;;;3.90;1.02;;;22.20;54.50;;;;;;5007906;28;20057;-78
2023/06/27 10:40:03;;;;;;;4.05;1.40;;;22.30;54.00;;;;;;4975523;28;20077;-79
2023/06/27 10:42:31;;;;;;;3.17;1.20;;;22.40;53.40;;;;;;4991141;28;20062;-78
2023/06/27 10:45:09;;;;;;;3.97;1.42;;;22.50;53.50;;;;;;5007478;28;20047;-79
2023/06/27 10:47:35;;;;;;;4.43;1.38;;;22.60;53.40;;;;;;4975530;28;20046;-79
2023/06/27 10:50:14;;;;;;;4.43;1.33;;;22.80;54.00;;;;;;4991603;28;20045;-79
2023/06/27 10:53:01;;;;;;;4.10;1.20;;;22.80;54.70;;;;;;5008261;28;20049;-79
2023/06/27 10:55:28;;;;;;;4.97;1.55;;;22.80;52.30;;;;;;4991077;28;20125;-77
2023/06/27 10:58:10;;;;;;;5.07;1.50;;;22.70;54.80;;;;;;4975162;28;20491;-78
2023/06/27 11:00:42;;;;;;;5.63;1.52;;;22.60;53.90;;;;;;4991120;28;20039;-79
2023/06/27 11:03:09;;;;;;;4.68;1.30;;;22.50;53.40;;;;;;4990554;28;20136;-78
2023/06/27 11:05:58;;;;;;;4.47;1.75;;;22.50;53.50;;;;;;5006819;28;20051;-76
2023/06/27 11:08:27;;;;;;;3.78;1.98;;;22.50;55.00;;;;;;4952583;28;20129;-77
2023/06/27 11:10:59;;;;;;;4.70;1.23;;;22.60;55.00;;;;;;5006737;28;20039;-76
2023/06/27 11:13:27;;;;;;;4.20;1.15;;;22.70;53.20;;;;;;4990281;28;20035;-78
2023/06/27 11:15:54;;;;;;;5.53;1.95;;;22.60;52.50;;;;;;5006669;28;20055;-77
2023/06/27 11:18:22;;;;;;;4.10;1.25;;;22.60;52.70;;;;;;4990429;28;20039;-78
2023/06/27 11:20:49;;;;;;;4.07;1.58;;;22.40;51.90;;;;;;4990851;28;20041;-79
2023/06/27 11:23:16;;;;;;;3.97;1.33;;;22.40;52.70;;;;;;4990425;28;20046;-78
2023/06/27 11:25:43;;;;;;;5.32;1.73;;;22.50;52.90;;;;;;4990318;28;20558;-78
2023/06/27 11:28:10;;;;;;;6.20;2.15;;;22.50;53.80;;;;;;4974682;28;20046;-77
2023/06/27 11:30:37;;;;;;;6.80;2.25;;;22.60;53.30;;;;;;4974164;28;20042;-78
2023/06/27 11:33:03;;;;;;;3.50;1.45;;;22.70;51.70;;;;;;5006935;28;20050;-78
2023/06/27 11:35:31;;;;;;;6.72;1.70;;;22.70;51.00;;;;;;5006612;28;20578;-78
2023/06/27 11:37:57;;;;;;;3.75;0.90;;;22.70;52.00;;;;;;5006379;28;20562;-78
2023/06/27 11:40:24;;;;;;;4.20;1.35;;;22.90;51.80;;;;;;5006912;28;20074;-78
2023/06/27 11:42:51;;;;;;;3.78;1.52;;;23.00;50.30;;;;;;5006391;28;20050;-78
2023/06/27 11:45:16;;;;;;;4.28;1.02;;;23.10;50.60;;;;;;4990902;28;20047;-78
2023/06/27 11:47:45;;;;;;;6.90;1.85;;;23.30;49.80;;;;;;4990763;28;20039;-78
2023/06/27 11:50:12;;;;;;;3.75;1.35;;;23.40;50.40;;;;;;5006846;28;20073;-78
2023/06/27 11:52:38;;;;;;;2.67;1.40;;;23.40;50.70;;;;;;5007210;28;20039;-78
2023/06/27 11:55:05;;;;;;;4.22;1.20;;;23.50;50.00;;;;;;5008443;28;20043;-78
2023/06/27 11:57:43;;;;;;;4.55;1.60;;;23.50;49.30;;;;;;4990234;28;20121;-78
2023/06/27 12:00:31;;;;;;;3.90;1.20;;;23.50;48.10;;;;;;5006297;28;20053;-78
2023/06/27 12:03:03;;;;;;;4.30;1.27;;;23.40;47.20;;;;;;4959804;28;20051;-78
2023/06/27 12:05:29;;;;;;;5.18;1.13;;;23.30;47.00;;;;;;5006534;28;20562;-78
2023/06/27 12:08:06;;;;;;;1.88;0.93;;;23.00;46.60;;;;;;4990135;28;20565;-78
2023/06/27 12:10:49;;;;;;;8.93;1.52;;;22.90;48.50;;;;;;4957920;28;20054;-78
2023/06/27 12:13:15;;;;;;;4.82;1.88;;;22.90;50.90;;;;;;5006300;28;20079;-78
2023/06/27 12:15:47;;;;;;;5.43;1.88;;;22.90;51.30;;;;;;4973815;28;20070;-78
2023/06/27 12:18:24;;;;;;;4.70;1.55;;;22.90;52.00;;;;;;5006535;28;20045;-78
2023/06/27 12:20:51;;;;;;;3.58;1.30;;;22.90;52.40;;;;;;5006505;28;20451;-78
2023/06/27 12:23:18;;;;;;;4.18;1.27;;;22.90;52.10;;;;;;5006432;28;20052;-78
2023/06/27 12:25:44;;;;;;;7.53;1.60;;;23.10;50.50;;;;;;4989626;28;20050;-78
2023/06/27 12:28:10;;;;;;;5.55;1.63;;;23.10;49.70;;;;;;5005822;28;20487;-78
2023/06/27 12:30:36;;;;;;;3.08;1.10;;;23.00;51.20;;;;;;4973158;28;20134;-78
2023/06/27 12:33:02;;;;;;;3.97;1.40;;;23.00;51.10;;;;;;5005411;28;20472;-78
2023/06/27 12:35:28;;;;;;;3.35;1.20;;;22.90;50.80;;;;;;4989153;28;20119;-78
2023/06/27 12:37:54;;;;;;;2.28;0.90;;;22.90;50.20;;;;;;5005985;28;20078;-78
2023/06/27 12:40:24;;;;;;;5.93;1.60;;;22.90;50.10;;;;;;5005495;28;20078;-78
2023/06/27 12:42:51;;;;;;;5.38;1.48;;;22.80;51.10;;;;;;5005581;28;20054;-78
2023/06/27 12:45:18;;;;;;;4.78;1.25;;;22.80;52.80;;;;;;4989943;28;20125;-78
2023/06/27 12:47:45;;;;;;;4.18;1.20;;;22.80;53.00;;;;;;5009540;28;20105;-78